Enter the Airport ICAO Code

Search by Airport or City

Current Weather

LEJR | Jerez Airport (La Parra Airport)

Jerez de la Frontera, Andalusia, Spain

Last Update 15 Minutes Ago

Sky with Few Clouds

Temperature of 28 ºC

Moderate Winds from SouthWest

Temperature

28 ºC

Dew Point Temperature

16 ºC

Relative Humidity

48.3 %

Wind Direction

SouthWest (240º, Ranging from 200º to 280º)

Wind Velocity

19 km/h (10 kt)

Gusts

None

Visibility

Greater than 10 Kilometers

Sea Level Pressure

1015 hPa (Hectopascals)

Layers of Clouds

5% to 30% of Sky Covered from 1158 mts (3800 ft) Above Ground Level.

METAR LEJR 121500Z 24010KT 200V280 9999 FEW038 28/16 Q1015

Weather Forecast

LEJR | Jerez Airport (La Parra Airport)

Jerez de la Frontera, Andalusia, Spain

Forecast valid for the next 21 Hours

From now on it is expected:

Clear Sky

Light to Moderate Winds from West

In 9 hours it is expected the begining of 8 hours with intermittent periods of:

Mist

Maximum Temperature

30 ºC in 21 Hours

Minimum Temperature

19 ºC in 15 Hours

TAF LEJR 121100Z 1212/1312 26009KT CAVOK TX30/1312Z TN19/1306Z PROB30 TEMPO 1300/1308 4000 BR BKN010